• Join FlightAware (Why Join?)
  • Login
  • US Flag 
Gobble Gobble! 
02:19AM EST


 

Airport Tracker/Info


-or-


 

Live Flight TrackerFlight Track Log ✈ CHH7133 ✈ 14-Aug-2014 ✈ ZSHC / HGH - ZUCK / CKG

Flight Track Log - Related Links

Times and Time Zones

All times are in EDT time to prevent confusion due to time zone crossing. See the CHH7133 flight status page for this flight to view local times or setup timezone preferences in your user account.

Time Position Orientation Groundspeed Altitude Reporting Facility
EDT Latitude Longitude Course Direction KTS MPH feet Rate Location/Type
07:41PM 30.2374 117.0465 271° West  Level Estimated
07:42PM 30.2363 116.9470 269° West  Level Estimated
07:43PM 30.2352 116.8474 269° West  Level Estimated
07:44PM 30.2340 116.7479 269° West  Level Estimated
07:45PM 30.2327 116.6483 269° West  Level Estimated
07:46PM 30.2314 116.5488 269° West  Level Estimated
07:47PM 30.2299 116.4492 269° West  Level Estimated
07:48PM 30.2285 116.3497 269° West  Level Estimated
07:49PM 30.2269 116.2502 269° West  Level Estimated
07:50PM 30.2252 116.1506 269° West  Level Estimated
07:51PM 30.2235 116.0511 269° West  Level Estimated
07:52PM 30.2217 115.9516 269° West  Level Estimated
07:53PM 30.2198 115.8520 269° West  Level Estimated
07:54PM 30.2178 115.7525 269° West  Level Estimated
07:55PM 30.2158 115.6530 269° West  Level Estimated
07:56PM 30.2137 115.5535 269° West  Level Estimated
07:57PM 30.2115 115.4540 269° West  Level Estimated
07:58PM 30.2093 115.3545 269° West  Level Estimated
07:59PM 30.2069 115.2550 268° West  Level Estimated
08:00PM 30.2045 115.1555 268° West  Level Estimated
08:01PM 30.2021 115.0560 268° West  Level Estimated
08:02PM 30.1995 114.9565 268° West  Level Estimated
08:03PM 30.1969 114.8570 268° West  Level Estimated
08:04PM 30.1942 114.7576 268° West  Level Estimated
08:05PM 30.1914 114.6581 268° West  Level Estimated
08:06PM 30.1885 114.5586 268° West  Level Estimated
08:07PM 30.1856 114.4592 268° West  Level Estimated
08:08PM 30.1826 114.3597 268° West  Level Estimated
08:09PM 30.1795 114.2603 268° West  Level Estimated
08:10PM 30.1764 114.1609 268° West  Level Estimated
08:11PM 30.1731 114.0614 268° West  Level Estimated
08:12PM 30.1698 113.9620 268° West  Level Estimated
08:13PM 30.1665 113.8626 268° West  Level Estimated
08:14PM 30.1630 113.7632 268° West  Level Estimated
08:15PM 30.1595 113.6638 268° West  Level Estimated
08:16PM 30.1559 113.5644 268° West  Level Estimated
08:17PM 30.1522 113.4650 268° West  Level Estimated
08:18PM 30.1484 113.3656 268° West  Level Estimated
08:19PM 30.1446 113.2662 267° West  Level Estimated
08:20PM 30.1407 113.1669 267° West  Level Estimated
08:21PM 30.1367 113.0675 267° West  Level Estimated
08:22PM 30.1327 112.9682 267° West  Level Estimated
08:23PM 30.1285 112.8688 267° West  Level Estimated
08:24PM 30.1243 112.7695 267° West  Level Estimated
08:25PM 30.1201 112.6702 267° West  Level Estimated
08:26PM 30.1157 112.5708 267° West  Level Estimated
08:27PM 30.1113 112.4715 267° West  Level Estimated
08:28PM 30.1068 112.3722 267° West  Level Estimated
08:29PM 30.1022 112.2729 267° West  Level Estimated
08:30PM 30.0975 112.1737 267° West  Level Estimated
08:31PM 30.0928 112.0744 267° West  Level Estimated
08:32PM 30.0880 111.9751 267° West  Level Estimated
08:33PM 30.0831 111.8759 267° West  Level Estimated
08:34PM 30.0782 111.7766 267° West  Level Estimated
08:35PM 30.0732 111.6774 267° West  Level Estimated
08:36PM 30.0681 111.5782 267° West  Level Estimated
08:37PM 30.0629 111.4790 267° West  Level Estimated
08:38PM 30.0576 111.3798 267° West  Level Estimated
08:39PM 30.0523 111.2806 266° West  Level Estimated
08:40PM 30.0469 111.1814 266° West  Level Estimated
08:41PM 30.0415 111.0823 266° West  Level Estimated
08:42PM 30.0359 110.9831 266° West  Level Estimated
08:43PM 30.0303 110.8839 266° West  Level Estimated
08:44PM 30.0246 110.7848 266° West  Level Estimated
08:45PM 30.0188 110.6857 266° West  Level Estimated
08:46PM 30.0130 110.5866 266° West  Level Estimated
08:47PM 30.0071 110.4875 266° West  Level Estimated
08:48PM 30.0011 110.3884 266° West  Level Estimated
08:49PM 29.9950 110.2893 266° West  Level Estimated
08:50PM 29.9889 110.1902 266° West  Level Estimated
08:51PM 29.9827 110.0912 266° West  Level Estimated
08:52PM 29.9764 109.9922 266° West  Level Estimated
08:53PM 29.9700 109.8931 266° West  Level Estimated
08:54PM 29.9636 109.7941 266° West  Level Estimated
08:55PM 29.9571 109.6951 266° West  Level Estimated
08:56PM 29.9505 109.5961 266° West  Level Estimated
08:57PM 29.9438 109.4972 266° West  Level Estimated
08:58PM 29.9371 109.3982 266° West  Level Estimated
08:59PM 29.9303 109.2992 265° West  Level Estimated
09:00PM 29.9234 109.2003 265° West  Level Estimated
09:01PM 29.9164 109.1014 265° West  Level Estimated
09:02PM 29.9094 109.0025 265° West  Level Estimated
09:03PM 29.9023 108.9036 265° West  Level Estimated
09:04PM 29.8951 108.8047 265° West  Level Estimated
09:05PM 29.8879 108.7059 265° West  Level Estimated
09:06PM 29.8806 108.6070 265° West  Level Estimated
09:07PM 29.8732 108.5082 265° West  Level Estimated
09:08PM 29.8657 108.4093 265° West  Level Estimated
09:09PM 29.8582 108.3105 265° West  Level Estimated
09:10PM 29.8505 108.2118 265° West  Level Estimated
09:11PM 29.8428 108.1130 265° West  Level Estimated
09:12PM 29.8351 108.0142 265° West  Level Estimated
09:13PM 29.8272 107.9155 265° West  Level Estimated
09:14PM 29.8193 107.8167 265° West  Level Estimated
09:15PM 29.8113 107.7180 265° West  Level Estimated
09:16PM 29.8033 107.6193 265° West  Level Estimated
09:17PM 29.7952 107.5207 265° West  Level Estimated
09:18PM 29.7869 107.4220 265° West  Level Estimated
09:19PM 29.7787 107.3233 265° West  Level Estimated
09:20PM 29.7703 107.2247 264° West  Level Estimated
09:21PM 29.7619 107.1261 264° West  Level Estimated
09:22PM 29.7534 107.0275 264° West  Level Estimated
09:23PM 29.7448 106.9289 264° West  Level Estimated
09:24PM 29.7362 106.8304 264° West  Level Estimated
09:25PM 29.7275 106.7318 264° West  Level Estimated
09:26PM 29.7194 106.6410 264° West  Level Estimated
09:27PM 29.7194 106.6410 North  Level Estimated
09:28PM 29.7194 106.6410 North  Level Estimated
09:29PM 29.7194 106.6410 North  Level Estimated
09:30PM 29.7194 106.6410 North  Level Estimated
09:31PM 29.7194 106.6410 North  Level Estimated
09:32PM 29.7194 106.6410 North  Level Estimated
09:33PM 29.7194 106.6410 North  Level Estimated
09:34PM 29.7194 106.6410 North  Level Estimated
09:35PM 29.7194 106.6410 North  Level Estimated
09:36PM 29.7194 106.6410 North  Level Estimated
09:37PM 29.7194 106.6410 North  Level Estimated
09:38PM 29.7194 106.6410 North  Level Estimated
09:39PM 29.7194 106.6410 North  Level Estimated
09:40PM 29.7194 106.6410 North  Level Estimated
09:41PM 29.7194 106.6410 North  Level Estimated
09:42PM 29.7194 106.6410 North  Level Estimated